Mobridge, SD

2:50 AM CDT on March 29, 2015 (GMT -0500)
Bismarck Municipal | | Change Station
CLOSE
Current Station
Airport
Location: Bismarck,
Elevation: 1660 ft
Nearby Weather Stations
Active Advisory: High Wind Warning

Elev 1660 ft 46.78 °N, 100.76 °W | Updated 58 minutes ago

Clear
Clear
48 °F
Feels Like 48 °F
N
17
Wind Variable Wind from West

Today
High -- | Low -- °F
--% Chance of Precip.
Yesterday
High -- | Low -- °F
Precip. -- in
7:27 AM 8:05 PM
Waxing Gibbous, 69% visible
Pressure 29.62 in
Visibility 10.0 miles
Clouds Overcast 10000 ft
Dew Point 41 °F
Humidity 77%
Rainfall 0.00 in
Snow Depth Not available.
UV 0 out of 12
Pollen 4.80 out of 12
Air Quality Not available.
Flu Activity Not available.
METAR KBIS 290652Z AUTO 28015KT 10SM OVC100 09/05 A2961 RMK AO2 SLP031 T00890050

More Conditions Fewer Conditions

Pressure 29.62 in
Visibility 10.0 miles
Clouds Overcast 10000 ft
Dew Point 41 °F
Humidity 77%
Rainfall 0.00 in
Snow Depth Not available.
UV 0 out of 12
Pollen 4.80 out of 12
Air Quality Not available.
Flu Activity Not available.
METAR KBIS 290652Z AUTO 28015KT 10SM OVC100 09/05 A2961 RMK AO2 SLP031 T00890050

More Conditions Fewer Conditions

10-Day Weather Forecast

Almanac

Astronomy

Mar. 29, 2015 Rise Set
Actual Time
Civil Twilight
Nautical Twilight
Astronomical Twilight
Moon
Length of Visible Light
Length of Day
Tomorrow will be .
, % of the Moon is Illuminated

Today's Extremes

State Highs State Lows

Community

WunderPhotos

Upload Photos

1,809,187 photos uploaded!

WunderBlogs® & News

Nearby

Air Quality

  Air Quality AQ Index Pollutant
Not available.

Snow Depth

Station Depth Elevation

Earthquake Activity

City Distance Mag. Time & Date
Minimum magnitude displayed is 2.5.

Coastal Water Temperatures

Place Temperature

Stations

Nearby Weather Stations

Station Location Temp. Windchill Dew Point Humidity Wind Precip. Elev Updated Type
                   
High Wind Warning
Statement as of 3:13 PM CDT on March 28, 2015

... High Wind Warning in effect from 1 am to 11 am CDT Sunday...

The National Weather Service in Aberdeen has issued a High Wind
Warning... which is in effect from 1 am to 11 am CDT Sunday. The
Wind Advisory is no longer in effect.

* Timing... strongest winds after midnight and toward Sunday
morning.

* Winds... northwest 30 to 45 mph with gusts to 55 mph... relaxing
toward noon.

* Impacts... travel may be especially hazardous for high profile
vehicles.

Precautionary/preparedness actions...

A High Wind Warning means a hazardous high wind event is expected
or occurring. Sustained wind speeds of at least 40 mph or gusts
of 58 mph or more can lead to property damage.